Robert — WCV2718 — position and weather

sailwx.info

Track history (hours):
 
Tides and Currents Weather Stations Pressure Air Temp Water Temp Dewpoint Dewpoint Depression Visibility Wind Speed Wind Dir Waves Ship Positions

Robert

Owner: WEEKS MARINE, INC., CRANFORD, NJ. More information available from US FCC via Universal Licensing System and Coast Guard Vessel Documentation Center.

Last reported at 2017-Nov-20 00:31 UTC. Time now 2017-Dec-15 04:29 UTC.
Position N 39°25' W 076°02'.
Warning: this ship's position is 25 days out of date.

Length 25 m; draft 12 m.

Type: Tug. MMSI: 366701350.

Date/timePositionNaut miles runAvg speedWind from/ knotsBaromVisibWave heightAir tempDewpointWater temp
2017-Nov-20 00:31N 39°25' W 076°02'4 7.1
2017-Nov-20 00:01N 39°28' W 075°59'3 6.9
2017-Nov-19 23:31N 39°30' W 075°55'3 6.3
2017-Nov-19 23:01N 39°32' W 075°52'3 5.4
2017-Nov-19 22:31N 39°32' W 075°48'3 5.9
2017-Nov-19 22:01N 39°32' W 075°45'3 6.0
2017-Nov-19 21:31N 39°33' W 075°41'3 5.8
2017-Nov-19 21:01N 39°33' W 075°37'3 6.0
2017-Nov-19 20:31N 39°34' W 075°33'4 8.7
2017-Nov-19 20:00N 39°38' W 075°34'5 9.2
2017-Nov-19 19:31N 39°42' W 075°31'4 8.6
2017-Nov-19 19:01N 39°46' W 075°29'4 8.0
2017-Nov-19 18:31N 39°48' W 075°25'4 7.4
2017-Nov-19 18:01N 39°51' W 075°21'3 6.5
2017-Nov-19 17:31N 39°51' W 075°17'3 6.4
2017-Nov-19 17:01N 39°52' W 075°13'3 6.1
2017-Nov-19 16:31N 39°53' W 075°09'3 6.1
2017-Nov-19 16:01N 39°56' W 075°08'1 3.0
2017-Nov-19 15:31N 39°57' W 075°08'0 0.1
2017-Nov-19 15:00N 39°57' W 075°08'0 0.0
2017-Nov-19 14:30N 39°57' W 075°08'0 0.0
2017-Nov-19 14:00N 39°57' W 075°08'0 0.0
2017-Nov-19 13:30N 39°57' W 075°08'0 0.0
2017-Nov-19 13:00N 39°57' W 075°08'0 0.0
2017-Nov-19 12:30N 39°57' W 075°08'0 0.0
2017-Nov-19 12:00N 39°57' W 075°08'0 0.0
2017-Nov-19 11:30N 39°57' W 075°08'0 0.0
2017-Nov-19 11:00N 39°57' W 075°08'0 0.0
2017-Nov-19 10:31N 39°57' W 075°08'0 0.0
2017-Nov-19 10:00N 39°57' W 075°08'0 0.0
2017-Nov-19 09:30N 39°57' W 075°08'0 0.0
2017-Nov-19 09:00N 39°57' W 075°08'0 0.0
2017-Nov-19 08:30N 39°57' W 075°08'0 0.0
2017-Nov-19 08:00N 39°57' W 075°08'0 0.0
2017-Nov-19 07:30N 39°57' W 075°08'0 0.0
2017-Nov-19 07:00N 39°57' W 075°08'0 0.0
2017-Nov-19 06:30N 39°57' W 075°08'0 0.0
2017-Nov-19 06:00N 39°57' W 075°08'0 0.0
2017-Nov-19 05:30N 39°57' W 075°08'0 0.0
2017-Nov-19 05:00N 39°57' W 075°08'0 0.0
2017-Nov-19 04:30N 39°57' W 075°08'0 0.0
2017-Nov-19 04:00N 39°57' W 075°08'0 0.0
2017-Nov-19 03:30N 39°57' W 075°08'0 0.0
2017-Nov-19 03:00N 39°57' W 075°08'0 0.0
2017-Nov-19 02:30N 39°57' W 075°08'0 0.0
2017-Nov-19 02:00N 39°57' W 075°08'0 0.0
2017-Nov-19 01:30N 39°57' W 075°08'0 0.0
2017-Nov-19 01:00N 39°57' W 075°08'0 0.0
2017-Nov-19 00:30N 39°57' W 075°08'0 0.0
2017-Nov-19 00:00N 39°57' W 075°08'0 0.0
2017-Nov-18 23:30N 39°57' W 075°08'0 0.0
2017-Nov-18 23:00N 39°57' W 075°08'0 0.0
2017-Nov-18 22:30N 39°57' W 075°08'0 0.0
2017-Nov-18 22:00N 39°57' W 075°08'0 0.1
2017-Nov-18 21:30N 39°57' W 075°08'4 7.7
2017-Nov-18 21:01N 39°54' W 075°08'4 7.5
2017-Nov-18 20:30N 39°52' W 075°13'4 8.2
2017-Nov-18 20:00N 39°51' W 075°18'4 8.5
2017-Nov-18 19:30N 39°49' W 075°23'5 9.3
2017-Nov-18 19:00N 39°47' W 075°28'5 9.5
2017-Nov-18 18:30N 39°42' W 075°31'5 9.3
2017-Nov-18 18:00N 39°38' W 075°34'4 8.9
2017-Nov-18 17:30N 39°34' W 075°33'5 9.7
2017-Nov-18 17:00N 39°29' W 075°34'5 9.7
2017-Nov-18 16:30N 39°25' W 075°31'510.6
2017-Nov-18 16:00N 39°21' W 075°26'510.5
2017-Nov-18 15:30N 39°17' W 075°22'510.5
2017-Nov-18 15:00N 39°13' W 075°18'510.2
2017-Nov-18 14:30N 39°08' W 075°14'510.1
2017-Nov-18 14:00N 39°04' W 075°11'510.1
2017-Nov-18 13:30N 38°60' W 075°08'510.4
2017-Nov-18 12:59N 38°55' W 075°05'510.1
2017-Nov-18 12:30N 38°50' W 075°03'11 8.6
2017-Nov-18 11:15N 38°52' W 074°49'48 9.7
2017-Nov-18 06:15N 39°31' W 074°11'2 9.7
2017-Nov-18 06:00N 39°33' W 074°10'5 9.7
2017-Nov-18 05:29N 39°38' W 074°07'5 9.8
2017-Nov-18 05:00N 39°42' W 074°04'6 9.8
2017-Nov-18 04:21N 39°48' W 074°02'36 9.6
2017-Nov-18 00:34N 40°24' W 073°57'4 9.1
2017-Nov-18 00:08N 40°28' W 073°58'1 8.7
2017-Nov-18 00:00N 40°29' W 073°59'4 5.8
2017-Nov-17 23:24N 40°31' W 074°03'3 8.3
2017-Nov-17 23:00N 40°34' W 074°02'4 8.7
2017-Nov-17 22:31N 40°38' W 074°03'2 4.8
2017-Nov-17 22:01N 40°41' W 074°05'1 2.5
2017-Nov-17 21:30N 40°40' W 074°04'5 9.1
2017-Nov-17 21:00N 40°35' W 074°02'4 8.8
2017-Nov-17 20:30N 40°31' W 074°03'3 0.6
2017-Nov-17 15:03N 40°28' W 074°01'0 0.3
2017-Nov-17 15:00N 40°28' W 074°01'0 0.2
2017-Nov-17 14:05N 40°28' W 074°01'0 0.8
2017-Nov-17 14:00N 40°27' W 074°01'0 0.0
2017-Nov-17 07:16N 40°28' W 074°01'0 0.0
2017-Nov-17 07:00N 40°28' W 074°01'0 0.0
2017-Nov-17 06:27N 40°28' W 074°01'0 0.1
2017-Nov-17 06:00N 40°28' W 074°01'0 0.0
2017-Nov-17 05:30N 40°28' W 074°01'0 0.0
2017-Nov-16 22:24N 40°28' W 074°01'0 0.1
2017-Nov-16 22:00N 40°28' W 074°01'1 1.2
2017-Nov-16 21:30N 40°28' W 074°01'1 1.2
2017-Nov-16 20:52N 40°29' W 074°01'0 1.1
2017-Nov-16 20:30N 40°29' W 074°00'2 2.3
2017-Nov-16 19:50N 40°27' W 074°01'0 0.1
2017-Nov-16 19:24N 40°27' W 074°01'2 3.6
2017-Nov-16 18:59N 40°29' W 074°00'1 3.0
2017-Nov-16 18:30N 40°28' W 074°01'1 2.5
2017-Nov-16 18:00N 40°29' W 074°01'1 1.5
2017-Nov-16 17:30N 40°29' W 074°00'2 3.0
2017-Nov-16 16:59N 40°28' W 074°01'1 2.9
2017-Nov-16 16:28N 40°29' W 074°00'1 2.5
2017-Nov-16 15:56N 40°28' W 074°01'1 0.7
2017-Nov-16 15:09N 40°27' W 074°01'1 2.5
2017-Nov-16 14:57N 40°28' W 074°01'1 2.3
2017-Nov-16 14:30N 40°29' W 074°01'1 1.3
2017-Nov-16 13:58N 40°29' W 074°00'0 0.0
2017-Nov-16 13:30N 40°29' W 074°00'0 0.0
2017-Nov-16 13:00N 40°29' W 074°00'1 1.4
2017-Nov-16 12:11N 40°28' W 074°01'0 0.4
2017-Nov-16 11:57N 40°28' W 074°01'1 2.7
2017-Nov-16 11:30N 40°29' W 074°01'0 0.2
2017-Nov-16 11:00N 40°29' W 074°01'0 0.1
2017-Nov-16 10:30N 40°29' W 074°01'0 0.3
2017-Nov-16 10:00N 40°29' W 074°01'0 0.3
2017-Nov-16 09:30N 40°29' W 074°01'1 1.0
2017-Nov-16 08:59N 40°29' W 074°00'0 0.0
2017-Nov-16 08:29N 40°29' W 074°00'0 0.0
2017-Nov-16 08:00N 40°29' W 074°00'0 0.0
2017-Nov-16 07:22N 40°29' W 074°00'0 0.0
2017-Nov-16 07:01N 40°29' W 074°00'0 0.0
2017-Nov-16 06:29N 40°29' W 074°00'1 2.1
2017-Nov-16 05:59N 40°28' W 074°01'1 1.3
2017-Nov-16 05:20N 40°28' W 074°01'0 1.2
2017-Nov-16 05:00N 40°28' W 074°01'0 0.8
2017-Nov-16 04:24N 40°27' W 074°01'0 0.0
2017-Nov-16 04:00N 40°27' W 074°01'0 0.0
2017-Nov-16 03:30N 40°27' W 074°01'0 0.0
2017-Nov-16 02:59N 40°27' W 074°01'0 0.0
2017-Nov-16 02:05N 40°27' W 074°01'0 0.0
2017-Nov-16 01:55N 40°27' W 074°01'0 0.1
2017-Nov-16 00:54N 40°28' W 074°01'1 2.9
2017-Nov-16 00:30N 40°29' W 074°01'1 1.2
2017-Nov-15 23:56N 40°29' W 074°00'1 3.0
2017-Nov-15 23:30N 40°28' W 074°01'0 0.8
2017-Nov-15 23:00N 40°28' W 074°01'1 2.1
2017-Nov-15 22:29N 40°29' W 074°00'0 0.0
2017-Nov-15 22:00N 40°29' W 074°00'0 0.0
2017-Nov-15 21:22N 40°29' W 074°00'0 1.0
2017-Nov-15 20:58N 40°29' W 074°01'1 2.8
2017-Nov-15 20:29N 40°27' W 074°01'0 0.6
2017-Nov-15 20:00N 40°28' W 074°01'1 2.7
2017-Nov-15 19:29N 40°29' W 074°00'1 2.2
2017-Nov-15 19:01N 40°28' W 074°02'0 0.3
2017-Nov-15 18:20N 40°29' W 074°01'0 0.2
2017-Nov-15 18:00N 40°29' W 074°02'1 1.4
2017-Nov-15 17:30N 40°29' W 074°01'0 0.5
2017-Nov-15 16:59N 40°29' W 074°00'0 0.0
2017-Nov-15 16:30N 40°29' W 074°00'0 0.0
2017-Nov-15 16:00N 40°29' W 074°00'0 0.0
2017-Nov-15 15:28N 40°29' W 074°00'0 0.0
2017-Nov-15 15:00N 40°29' W 074°00'0 0.0
2017-Nov-15 14:30N 40°29' W 074°00'0 0.9
2017-Nov-15 14:00N 40°29' W 074°01'0 0.4
2017-Nov-15 13:26N 40°29' W 074°01'0 0.6
2017-Nov-15 13:00N 40°29' W 074°00'0 0.0
2017-Nov-15 12:30N 40°29' W 074°00'0 0.0
2017-Nov-15 12:00N 40°29' W 074°00'0 0.0
2017-Nov-15 11:30N 40°29' W 074°00'0 0.0
2017-Nov-15 11:01N 40°29' W 074°00'0 0.0
2017-Nov-15 10:31N 40°29' W 074°00'0 0.0
2017-Nov-15 10:00N 40°29' W 074°00'0 0.9
2017-Nov-15 09:30N 40°29' W 074°01'0 0.4
2017-Nov-15 09:00N 40°29' W 074°01'0 0.2
2017-Nov-15 08:30N 40°29' W 074°01'0 0.8
2017-Nov-15 08:00N 40°29' W 074°00'0 0.1
2017-Nov-15 07:30N 40°29' W 074°00'2 3.0
2017-Nov-15 07:00N 40°27' W 074°01'0 0.0
2017-Nov-15 06:28N 40°27' W 074°01'2 4.8
2017-Nov-15 06:00N 40°29' W 074°03'4 6.8
2017-Nov-15 05:29N 40°30' W 074°08'6 4.9
2017-Nov-15 04:11N 40°33' W 074°15'1 4.8
2017-Nov-15 03:58N 40°33' W 074°14'2 5.0
2017-Nov-15 03:30N 40°35' W 074°12'4 7.1
2017-Nov-15 03:00N 40°39' W 074°11'3 6.1
2017-Nov-15 02:30N 40°39' W 074°07'3 5.6
2017-Nov-15 02:00N 40°40' W 074°04'1 1.5
2017-Nov-15 01:31N 40°41' W 074°05'1 1.7
2017-Nov-15 01:00N 40°40' W 074°04'4 8.2
2017-Nov-15 00:30N 40°39' W 074°09'3 6.7
2017-Nov-15 00:00N 40°36' W 074°12'4 3.5
2017-Nov-14 22:50N 40°33' W 074°15'3 7.8
2017-Nov-14 22:26N 40°35' W 074°12'3 7.4
2017-Nov-14 22:00N 40°38' W 074°12'4 8.6
2017-Nov-14 21:31N 40°39' W 074°06'2 4.2
2017-Nov-14 21:01N 40°41' W 074°05'0 0.1
2017-Nov-14 20:30N 40°41' W 074°05'0 0.1
2017-Nov-14 20:00N 40°41' W 074°05'0 0.1
2017-Nov-14 19:30N 40°41' W 074°05'0 0.0
2017-Nov-14 19:00N 40°41' W 074°05'0 0.0
2017-Nov-14 18:30N 40°41' W 074°05'0 0.2
2017-Nov-14 18:00N 40°40' W 074°05'1 1.2
2017-Nov-14 17:30N 40°40' W 074°04'1 2.4
2017-Nov-14 17:01N 40°39' W 074°03'1 2.8
2017-Nov-14 16:30N 40°40' W 074°01'1 1.0
2017-Nov-14 16:00N 40°40' W 074°00'0 0.3
2017-Nov-14 15:30N 40°40' W 074°00'0 0.1
2017-Nov-14 15:01N 40°40' W 074°00'0 0.0
2017-Nov-14 14:30N 40°40' W 074°00'0 0.1
2017-Nov-14 14:00N 40°40' W 074°00'0 0.3
2017-Nov-14 13:31N 40°40' W 074°00'0 0.0
2017-Nov-14 13:01N 40°40' W 074°00'0 0.0
2017-Nov-14 12:30N 40°40' W 074°00'0 0.7
2017-Nov-14 12:00N 40°40' W 074°01'2 4.5
2017-Nov-14 11:30N 40°40' W 074°04'1 1.9
2017-Nov-14 11:00N 40°40' W 074°05'0 0.0
2017-Nov-14 10:30N 40°40' W 074°05'0 0.0
2017-Nov-14 10:00N 40°40' W 074°05'0 0.0
2017-Nov-14 09:30N 40°40' W 074°05'0 0.0
2017-Nov-14 09:00N 40°40' W 074°05'0 0.0
2017-Nov-14 08:31N 40°40' W 074°05'0 0.0
2017-Nov-14 08:01N 40°40' W 074°05'0 0.0
2017-Nov-14 07:31N 40°40' W 074°05'0 0.0
2017-Nov-14 07:01N 40°40' W 074°05'0 0.0
2017-Nov-14 06:31N 40°40' W 074°05'0 0.0
2017-Nov-14 06:00N 40°40' W 074°05'0 0.0
2017-Nov-14 05:31N 40°40' W 074°05'0 0.0
2017-Nov-14 05:00N 40°40' W 074°05'0 0.0
2017-Nov-14 04:30N 40°40' W 074°05'0 0.0
2017-Nov-14 04:00N 40°40' W 074°05'0 0.0
2017-Nov-14 03:30N 40°40' W 074°05'0 0.2
2017-Nov-14 03:01N 40°41' W 074°05'0 0.0
2017-Nov-14 02:31N 40°41' W 074°05'0 0.0
2017-Nov-14 02:00N 40°41' W 074°05'0 0.0
2017-Nov-14 01:31N 40°41' W 074°05'0 0.0
2017-Nov-14 01:00N 40°41' W 074°05'0 0.0
2017-Nov-14 00:31N 40°41' W 074°05'0 0.0
2017-Nov-14 00:01N 40°41' W 074°05'0 0.4
2017-Nov-13 23:31N 40°41' W 074°04'0 0.1
2017-Nov-13 23:00N 40°41' W 074°04'0 0.3
2017-Nov-13 22:30N 40°40' W 074°04'0 0.3
2017-Nov-13 22:00N 40°41' W 074°04'4 0.2
2017-Nov-13 02:01N 40°37' W 074°03'0 0.0
2017-Nov-13 01:31N 40°37' W 074°03'0 0.0
2017-Nov-13 01:00N 40°37' W 074°03'0 0.0
2017-Nov-13 00:29N 40°37' W 074°03'0 0.2
2017-Nov-13 00:01N 40°37' W 074°03'0 0.0
2017-Nov-12 23:30N 40°37' W 074°03'0 0.5
2017-Nov-12 23:01N 40°37' W 074°03'0 0.4
2017-Nov-12 22:30N 40°37' W 074°03'1 1.5
2017-Nov-12 22:00N 40°38' W 074°03'3 5.1
2017-Nov-12 21:30N 40°40' W 074°04'0 0.2
2017-Nov-12 21:00N 40°41' W 074°05'0 0.0
2017-Nov-12 20:30N 40°41' W 074°05'0 0.0
2017-Nov-12 20:01N 40°41' W 074°05'0 0.0
2017-Nov-12 19:30N 40°41' W 074°05'0 0.0
2017-Nov-12 19:00N 40°41' W 074°05'0 0.0
2017-Nov-12 18:30N 40°41' W 074°05'0 0.0
2017-Nov-12 18:00N 40°41' W 074°05'0 0.0
2017-Nov-12 17:30N 40°41' W 074°05'2 4.3
2017-Nov-12 17:00N 40°39' W 074°06'0 0.3
2017-Nov-12 15:46N 40°39' W 074°07'0 0.0
2017-Nov-12 15:30N 40°39' W 074°07'0 0.0
2017-Nov-12 14:56N 40°39' W 074°07'0 0.0
2017-Nov-12 14:28N 40°39' W 074°07'0 0.0
2017-Nov-12 14:00N 40°39' W 074°07'0 0.2
2017-Nov-12 13:31N 40°39' W 074°07'2 4.6
2017-Nov-12 13:00N 40°40' W 074°04'0 0.3
2017-Nov-12 12:30N 40°41' W 074°05'0 0.0
2017-Nov-12 12:01N 40°41' W 074°05'0 0.0
2017-Nov-12 11:31N 40°41' W 074°05'0 0.0
2017-Nov-12 11:00N 40°41' W 074°05'0 0.0
2017-Nov-12 10:30N 40°41' W 074°05'0 0.0
2017-Nov-12 09:30N 40°41' W 074°05'0 0.0
2017-Nov-12 09:01N 40°41' W 074°05'0 0.0
2017-Nov-12 08:30N 40°41' W 074°05'0 0.0
2017-Nov-12 08:01N 40°41' W 074°05'0 0.0
2017-Nov-12 07:31N 40°41' W 074°05'0 0.0
2017-Nov-12 07:01N 40°41' W 074°05'0 0.0
2017-Nov-12 06:30N 40°41' W 074°05'0 0.0
2017-Nov-12 06:00N 40°41' W 074°05'0 0.0
2017-Nov-12 05:30N 40°41' W 074°05'0 0.0
2017-Nov-12 05:01N 40°41' W 074°05'0 0.0
2017-Nov-12 04:30N 40°41' W 074°05'0 0.0
2017-Nov-12 04:00N 40°41' W 074°05'0 0.0
2017-Nov-12 03:31N 40°41' W 074°05'0 0.0
2017-Nov-12 03:00N 40°41' W 074°05'0 0.0
2017-Nov-12 02:30N 40°41' W 074°05'0 0.0
2017-Nov-12 02:01N 40°41' W 074°05'0 0.0
2017-Nov-12 01:30N 40°41' W 074°05'0 0.0
2017-Nov-12 01:00N 40°41' W 074°05'0 0.0
2017-Nov-12 00:30N 40°41' W 074°05'0 0.0
2017-Nov-12 00:01N 40°41' W 074°05'0 0.0
2017-Nov-11 23:31N 40°41' W 074°05'0 0.0
2017-Nov-11 23:01N 40°41' W 074°05'0 0.0
2017-Nov-11 22:31N 40°41' W 074°05'0 0.0
2017-Nov-11 22:00N 40°41' W 074°05'0 0.3
2017-Nov-11 21:31N 40°40' W 074°04'0 0.1
2017-Nov-11 21:00N 40°40' W 074°04'0 0.4
2017-Nov-11 20:31N 40°41' W 074°05'0 0.0
2017-Nov-11 20:00N 40°41' W 074°05'0 0.0
2017-Nov-11 19:31N 40°41' W 074°05'0 0.0
2017-Nov-11 19:00N 40°41' W 074°05'0 0.0
2017-Nov-11 18:31N 40°41' W 074°05'0 0.0
2017-Nov-11 18:01N 40°41' W 074°05'0 0.0
2017-Nov-11 17:30N 40°41' W 074°05'0 0.0
2017-Nov-11 17:01N 40°41' W 074°05'0 0.0
2017-Nov-11 16:30N 40°41' W 074°05'0 0.0
2017-Nov-11 16:01N 40°41' W 074°05'0 0.0
2017-Nov-11 15:30N 40°41' W 074°05'0 0.0
2017-Nov-11 15:00N 40°41' W 074°05'0 0.0
2017-Nov-11 14:30N 40°41' W 074°05'0 0.0
2017-Nov-11 14:00N 40°41' W 074°05'0 0.0
2017-Nov-11 13:31N 40°41' W 074°05'0 0.0
2017-Nov-11 13:00N 40°41' W 074°05'0 0.0
2017-Nov-11 12:30N 40°41' W 074°05'0 0.0
2017-Nov-11 12:01N 40°41' W 074°05'0 0.0
2017-Nov-11 11:30N 40°41' W 074°05'0 0.0
2017-Nov-11 11:00N 40°41' W 074°05'0 0.0
2017-Nov-11 10:30N 40°41' W 074°05'0 0.0
2017-Nov-11 10:00N 40°41' W 074°05'0 0.0
2017-Nov-11 09:30N 40°41' W 074°05'0 0.0
2017-Nov-11 09:00N 40°41' W 074°05'0 0.0
2017-Nov-11 08:31N 40°41' W 074°05'0 0.0
2017-Nov-11 08:00N 40°41' W 074°05'0 0.0
2017-Nov-11 07:31N 40°41' W 074°05'0 0.0
2017-Nov-11 07:01N 40°41' W 074°05'0 0.0
2017-Nov-11 06:30N 40°41' W 074°05'0 0.0
2017-Nov-11 06:00N 40°41' W 074°05'0 0.0
2017-Nov-11 05:30N 40°41' W 074°05'0 0.0
2017-Nov-11 05:01N 40°41' W 074°05'0 0.0
2017-Nov-11 04:30N 40°41' W 074°05'0 0.0
2017-Nov-11 04:01N 40°41' W 074°05'0 0.0
2017-Nov-11 03:31N 40°41' W 074°05'0 0.0
2017-Nov-11 03:00N 40°41' W 074°05'0 0.0
2017-Nov-11 02:30N 40°41' W 074°05'0 0.0
2017-Nov-11 02:00N 40°41' W 074°05'0 0.0
2017-Nov-11 01:30N 40°41' W 074°05'0 0.0
2017-Nov-11 01:00N 40°41' W 074°05'0 0.0
2017-Nov-11 00:30N 40°41' W 074°05'0 0.0
2017-Nov-11 00:00N 40°41' W 074°05'0 0.0
2017-Nov-10 23:30N 40°41' W 074°05'0 0.0
2017-Nov-10 23:00N 40°41' W 074°05'0 0.0
2017-Nov-10 22:30N 40°41' W 074°05'0 0.0
2017-Nov-10 22:00N 40°41' W 074°05'0 0.0
2017-Nov-10 21:31N 40°41' W 074°05'0 0.0
2017-Nov-10 21:00N 40°41' W 074°05'0 0.0
2017-Nov-10 20:31N 40°41' W 074°05'0 0.0
2017-Nov-10 20:00N 40°41' W 074°05'0 0.0
2017-Nov-10 19:30N 40°41' W 074°05'0 0.0
2017-Nov-10 19:00N 40°41' W 074°05'0 0.0
2017-Nov-10 18:30N 40°41' W 074°05'0 0.0
2017-Nov-10 18:00N 40°41' W 074°05'0 0.0
2017-Nov-10 17:30N 40°41' W 074°05'0 0.0
2017-Nov-10 17:00N 40°41' W 074°05'0 0.0
2017-Nov-10 16:31N 40°41' W 074°05'0 0.0
2017-Nov-10 16:01N 40°41' W 074°05'0 0.0
2017-Nov-10 15:30N 40°41' W 074°05'0 0.0
2017-Nov-10 15:01N 40°41' W 074°05'0 0.0
2017-Nov-10 14:31N 40°41' W 074°05'0 0.0
2017-Nov-10 14:01N 40°41' W 074°05'0 0.0
2017-Nov-10 13:30N 40°41' W 074°05'0 0.0
2017-Nov-10 13:01N 40°41' W 074°05'0 0.0
2017-Nov-10 12:30N 40°41' W 074°05'0 0.0
2017-Nov-10 12:00N 40°41' W 074°05'0 0.0
2017-Nov-10 11:31N 40°41' W 074°05'0 0.0
2017-Nov-10 11:00N 40°41' W 074°05'0 0.0
2017-Nov-10 10:30N 40°41' W 074°05'0 0.0
2017-Nov-10 10:01N 40°41' W 074°05'0 0.0
2017-Nov-10 09:30N 40°41' W 074°05'0 0.0
2017-Nov-10 09:01N 40°41' W 074°05'0 0.0
2017-Nov-10 08:30N 40°41' W 074°05'0 0.0
2017-Nov-10 08:01N 40°41' W 074°05'0 0.0
2017-Nov-10 07:30N 40°41' W 074°05'0 0.0
2017-Nov-10 07:01N 40°41' W 074°05'0 0.0
2017-Nov-10 06:31N 40°41' W 074°05'0 0.0
2017-Nov-10 06:00N 40°41' W 074°05'0 0.0
2017-Nov-10 05:31N 40°41' W 074°05'0 0.0
2017-Nov-10 05:01N 40°41' W 074°05'0 0.0
2017-Nov-10 04:31N 40°41' W 074°05'0 0.0
2017-Nov-10 04:01N 40°41' W 074°05'0 0.0
2017-Nov-10 03:31N 40°41' W 074°05'0 0.0
2017-Nov-10 03:01N 40°41' W 074°05'0 0.0
2017-Nov-10 02:30N 40°41' W 074°05'0 0.0
2017-Nov-10 02:00N 40°41' W 074°05'0 0.0
2017-Nov-10 01:30N 40°41' W 074°05'0 0.0
2017-Nov-10 01:00N 40°41' W 074°05'0 0.0
2017-Nov-10 00:31N 40°41' W 074°05'  
Track history (hours):
 
Tides and Currents Weather Stations Pressure Air Temp Water Temp Dewpoint Dewpoint Depression Visibility Wind Speed Wind Dir Waves Ship Positions

Robert

Owner: WEEKS MARINE, INC., CRANFORD, NJ. More information available from US FCC via Universal Licensing System and Coast Guard Vessel Documentation Center.

Last reported at 2017-Nov-20 00:31 UTC. Time now 2017-Dec-15 04:29 UTC.
Position N 39°25' W 076°02'.
Warning: this ship's position is 25 days out of date.

Length 25 m; draft 12 m.

Type: Tug. MMSI: 366701350.

Date/timePositionNaut miles runAvg speedWind from/ knotsBaromVisibWave heightAir tempDewpointWater temp
2017-Nov-20 00:31N 39°25' W 076°02'4 7.1
2017-Nov-20 00:01N 39°28' W 075°59'3 6.9
2017-Nov-19 23:31N 39°30' W 075°55'3 6.3
2017-Nov-19 23:01N 39°32' W 075°52'3 5.4
2017-Nov-19 22:31N 39°32' W 075°48'3 5.9
2017-Nov-19 22:01N 39°32' W 075°45'3 6.0
2017-Nov-19 21:31N 39°33' W 075°41'3 5.8
2017-Nov-19 21:01N 39°33' W 075°37'3 6.0
2017-Nov-19 20:31N 39°34' W 075°33'4 8.7
2017-Nov-19 20:00N 39°38' W 075°34'5 9.2
2017-Nov-19 19:31N 39°42' W 075°31'4 8.6
2017-Nov-19 19:01N 39°46' W 075°29'4 8.0
2017-Nov-19 18:31N 39°48' W 075°25'4 7.4
2017-Nov-19 18:01N 39°51' W 075°21'3 6.5
2017-Nov-19 17:31N 39°51' W 075°17'3 6.4
2017-Nov-19 17:01N 39°52' W 075°13'3 6.1
2017-Nov-19 16:31N 39°53' W 075°09'3 6.1
2017-Nov-19 16:01N 39°56' W 075°08'1 3.0
2017-Nov-19 15:31N 39°57' W 075°08'0 0.1
2017-Nov-19 15:00N 39°57' W 075°08'0 0.0
2017-Nov-19 14:30N 39°57' W 075°08'0 0.0
2017-Nov-19 14:00N 39°57' W 075°08'0 0.0
2017-Nov-19 13:30N 39°57' W 075°08'0 0.0
2017-Nov-19 13:00N 39°57' W 075°08'0 0.0
2017-Nov-19 12:30N 39°57' W 075°08'0 0.0
2017-Nov-19 12:00N 39°57' W 075°08'0 0.0
2017-Nov-19 11:30N 39°57' W 075°08'0 0.0
2017-Nov-19 11:00N 39°57' W 075°08'0 0.0
2017-Nov-19 10:31N 39°57' W 075°08'0 0.0
2017-Nov-19 10:00N 39°57' W 075°08'0 0.0
2017-Nov-19 09:30N 39°57' W 075°08'0 0.0
2017-Nov-19 09:00N 39°57' W 075°08'0 0.0
2017-Nov-19 08:30N 39°57' W 075°08'0 0.0
2017-Nov-19 08:00N 39°57' W 075°08'0 0.0
2017-Nov-19 07:30N 39°57' W 075°08'0 0.0
2017-Nov-19 07:00N 39°57' W 075°08'0 0.0
2017-Nov-19 06:30N 39°57' W 075°08'0 0.0
2017-Nov-19 06:00N 39°57' W 075°08'0 0.0
2017-Nov-19 05:30N 39°57' W 075°08'0 0.0
2017-Nov-19 05:00N 39°57' W 075°08'0 0.0
2017-Nov-19 04:30N 39°57' W 075°08'0 0.0
2017-Nov-19 04:00N 39°57' W 075°08'0 0.0
2017-Nov-19 03:30N 39°57' W 075°08'0 0.0
2017-Nov-19 03:00N 39°57' W 075°08'0 0.0
2017-Nov-19 02:30N 39°57' W 075°08'0 0.0
2017-Nov-19 02:00N 39°57' W 075°08'0 0.0
2017-Nov-19 01:30N 39°57' W 075°08'0 0.0
2017-Nov-19 01:00N 39°57' W 075°08'0 0.0
2017-Nov-19 00:30N 39°57' W 075°08'0 0.0
2017-Nov-19 00:00N 39°57' W 075°08'0 0.0
2017-Nov-18 23:30N 39°57' W 075°08'0 0.0
2017-Nov-18 23:00N 39°57' W 075°08'0 0.0
2017-Nov-18 22:30N 39°57' W 075°08'0 0.0
2017-Nov-18 22:00N 39°57' W 075°08'0 0.1
2017-Nov-18 21:30N 39°57' W 075°08'4 7.7
2017-Nov-18 21:01N 39°54' W 075°08'4 7.5
2017-Nov-18 20:30N 39°52' W 075°13'4 8.2
2017-Nov-18 20:00N 39°51' W 075°18'4 8.5
2017-Nov-18 19:30N 39°49' W 075°23'5 9.3
2017-Nov-18 19:00N 39°47' W 075°28'5 9.5
2017-Nov-18 18:30N 39°42' W 075°31'5 9.3
2017-Nov-18 18:00N 39°38' W 075°34'4 8.9
2017-Nov-18 17:30N 39°34' W 075°33'5 9.7
2017-Nov-18 17:00N 39°29' W 075°34'5 9.7
2017-Nov-18 16:30N 39°25' W 075°31'510.6
2017-Nov-18 16:00N 39°21' W 075°26'510.5
2017-Nov-18 15:30N 39°17' W 075°22'510.5
2017-Nov-18 15:00N 39°13' W 075°18'510.2
2017-Nov-18 14:30N 39°08' W 075°14'510.1
2017-Nov-18 14:00N 39°04' W 075°11'510.1
2017-Nov-18 13:30N 38°60' W 075°08'510.4
2017-Nov-18 12:59N 38°55' W 075°05'510.1
2017-Nov-18 12:30N 38°50' W 075°03'11 8.6
2017-Nov-18 11:15N 38°52' W 074°49'48 9.7
2017-Nov-18 06:15N 39°31' W 074°11'2 9.7
2017-Nov-18 06:00N 39°33' W 074°10'5 9.7
2017-Nov-18 05:29N 39°38' W 074°07'5 9.8
2017-Nov-18 05:00N 39°42' W 074°04'6 9.8
2017-Nov-18 04:21N 39°48' W 074°02'36 9.6
2017-Nov-18 00:34N 40°24' W 073°57'4 9.1
2017-Nov-18 00:08N 40°28' W 073°58'1 8.7
2017-Nov-18 00:00N 40°29' W 073°59'4 5.8
2017-Nov-17 23:24N 40°31' W 074°03'3 8.3
2017-Nov-17 23:00N 40°34' W 074°02'4 8.7
2017-Nov-17 22:31N 40°38' W 074°03'2 4.8
2017-Nov-17 22:01N 40°41' W 074°05'1 2.5
2017-Nov-17 21:30N 40°40' W 074°04'5 9.1
2017-Nov-17 21:00N 40°35' W 074°02'4 8.8
2017-Nov-17 20:30N 40°31' W 074°03'3 0.6
2017-Nov-17 15:03N 40°28' W 074°01'0 0.3
2017-Nov-17 15:00N 40°28' W 074°01'0 0.2
2017-Nov-17 14:05N 40°28' W 074°01'0 0.8
2017-Nov-17 14:00N 40°27' W 074°01'0 0.0
2017-Nov-17 07:16N 40°28' W 074°01'0 0.0
2017-Nov-17 07:00N 40°28' W 074°01'0 0.0
2017-Nov-17 06:27N 40°28' W 074°01'0 0.1
2017-Nov-17 06:00N 40°28' W 074°01'0 0.0
2017-Nov-17 05:30N 40°28' W 074°01'0 0.0
2017-Nov-16 22:24N 40°28' W 074°01'0 0.1
2017-Nov-16 22:00N 40°28' W 074°01'1 1.2
2017-Nov-16 21:30N 40°28' W 074°01'1 1.2
2017-Nov-16 20:52N 40°29' W 074°01'0 1.1
2017-Nov-16 20:30N 40°29' W 074°00'2 2.3
2017-Nov-16 19:50N 40°27' W 074°01'0 0.1
2017-Nov-16 19:24N 40°27' W 074°01'2 3.6
2017-Nov-16 18:59N 40°29' W 074°00'1 3.0
2017-Nov-16 18:30N 40°28' W 074°01'1 2.5
2017-Nov-16 18:00N 40°29' W 074°01'1 1.5
2017-Nov-16 17:30N 40°29' W 074°00'2 3.0
2017-Nov-16 16:59N 40°28' W 074°01'1 2.9
2017-Nov-16 16:28N 40°29' W 074°00'1 2.5
2017-Nov-16 15:56N 40°28' W 074°01'1 0.7
2017-Nov-16 15:09N 40°27' W 074°01'1 2.5
2017-Nov-16 14:57N 40°28' W 074°01'1 2.3
2017-Nov-16 14:30N 40°29' W 074°01'1 1.3
2017-Nov-16 13:58N 40°29' W 074°00'0 0.0
2017-Nov-16 13:30N 40°29' W 074°00'0 0.0
2017-Nov-16 13:00N 40°29' W 074°00'1 1.4
2017-Nov-16 12:11N 40°28' W 074°01'0 0.4
2017-Nov-16 11:57N 40°28' W 074°01'1 2.7
2017-Nov-16 11:30N 40°29' W 074°01'0 0.2
2017-Nov-16 11:00N 40°29' W 074°01'0 0.1
2017-Nov-16 10:30N 40°29' W 074°01'0 0.3
2017-Nov-16 10:00N 40°29' W 074°01'0 0.3
2017-Nov-16 09:30N 40°29' W 074°01'1 1.0
2017-Nov-16 08:59N 40°29' W 074°00'0 0.0
2017-Nov-16 08:29N 40°29' W 074°00'0 0.0
2017-Nov-16 08:00N 40°29' W 074°00'0 0.0
2017-Nov-16 07:22N 40°29' W 074°00'0 0.0
2017-Nov-16 07:01N 40°29' W 074°00'0 0.0
2017-Nov-16 06:29N 40°29' W 074°00'1 2.1
2017-Nov-16 05:59N 40°28' W 074°01'1 1.3
2017-Nov-16 05:20N 40°28' W 074°01'0 1.2
2017-Nov-16 05:00N 40°28' W 074°01'0 0.8
2017-Nov-16 04:24N 40°27' W 074°01'0 0.0
2017-Nov-16 04:00N 40°27' W 074°01'0 0.0
2017-Nov-16 03:30N 40°27' W 074°01'0 0.0
2017-Nov-16 02:59N 40°27' W 074°01'0 0.0
2017-Nov-16 02:05N 40°27' W 074°01'0 0.0
2017-Nov-16 01:55N 40°27' W 074°01'0 0.1
2017-Nov-16 00:54N 40°28' W 074°01'1 2.9
2017-Nov-16 00:30N 40°29' W 074°01'1 1.2
2017-Nov-15 23:56N 40°29' W 074°00'1 3.0
2017-Nov-15 23:30N 40°28' W 074°01'0 0.8
2017-Nov-15 23:00N 40°28' W 074°01'1 2.1
2017-Nov-15 22:29N 40°29' W 074°00'0 0.0
2017-Nov-15 22:00N 40°29' W 074°00'0 0.0
2017-Nov-15 21:22N 40°29' W 074°00'0 1.0
2017-Nov-15 20:58N 40°29' W 074°01'1 2.8
2017-Nov-15 20:29N 40°27' W 074°01'0 0.6
2017-Nov-15 20:00N 40°28' W 074°01'1 2.7
2017-Nov-15 19:29N 40°29' W 074°00'1 2.2
2017-Nov-15 19:01N 40°28' W 074°02'0 0.3
2017-Nov-15 18:20N 40°29' W 074°01'0 0.2
2017-Nov-15 18:00N 40°29' W 074°02'1 1.4
2017-Nov-15 17:30N 40°29' W 074°01'0 0.5
2017-Nov-15 16:59N 40°29' W 074°00'0 0.0
2017-Nov-15 16:30N 40°29' W 074°00'0 0.0
2017-Nov-15 16:00N 40°29' W 074°00'0 0.0
2017-Nov-15 15:28N 40°29' W 074°00'0 0.0
2017-Nov-15 15:00N 40°29' W 074°00'0 0.0
2017-Nov-15 14:30N 40°29' W 074°00'0 0.9
2017-Nov-15 14:00N 40°29' W 074°01'0 0.4
2017-Nov-15 13:26N 40°29' W 074°01'0 0.6
2017-Nov-15 13:00N 40°29' W 074°00'0 0.0
2017-Nov-15 12:30N 40°29' W 074°00'0 0.0
2017-Nov-15 12:00N 40°29' W 074°00'0 0.0
2017-Nov-15 11:30N 40°29' W 074°00'0 0.0
2017-Nov-15 11:01N 40°29' W 074°00'0 0.0
2017-Nov-15 10:31N 40°29' W 074°00'0 0.0
2017-Nov-15 10:00N 40°29' W 074°00'0 0.9
2017-Nov-15 09:30N 40°29' W 074°01'0 0.4
2017-Nov-15 09:00N 40°29' W 074°01'0 0.2
2017-Nov-15 08:30N 40°29' W 074°01'0 0.8
2017-Nov-15 08:00N 40°29' W 074°00'0 0.1
2017-Nov-15 07:30N 40°29' W 074°00'2 3.0
2017-Nov-15 07:00N 40°27' W 074°01'0 0.0
2017-Nov-15 06:28N 40°27' W 074°01'2 4.8
2017-Nov-15 06:00N 40°29' W 074°03'4 6.8
2017-Nov-15 05:29N 40°30' W 074°08'6 4.9
2017-Nov-15 04:11N 40°33' W 074°15'1 4.8
2017-Nov-15 03:58N 40°33' W 074°14'2 5.0
2017-Nov-15 03:30N 40°35' W 074°12'4 7.1
2017-Nov-15 03:00N 40°39' W 074°11'3 6.1
2017-Nov-15 02:30N 40°39' W 074°07'3 5.6
2017-Nov-15 02:00N 40°40' W 074°04'1 1.5
2017-Nov-15 01:31N 40°41' W 074°05'1 1.7
2017-Nov-15 01:00N 40°40' W 074°04'4 8.2
2017-Nov-15 00:30N 40°39' W 074°09'3 6.7
2017-Nov-15 00:00N 40°36' W 074°12'4 3.5
2017-Nov-14 22:50N 40°33' W 074°15'3 7.8
2017-Nov-14 22:26N 40°35' W 074°12'3 7.4
2017-Nov-14 22:00N 40°38' W 074°12'4 8.6
2017-Nov-14 21:31N 40°39' W 074°06'2 4.2
2017-Nov-14 21:01N 40°41' W 074°05'0 0.1
2017-Nov-14 20:30N 40°41' W 074°05'0 0.1
2017-Nov-14 20:00N 40°41' W 074°05'0 0.1
2017-Nov-14 19:30N 40°41' W 074°05'0 0.0
2017-Nov-14 19:00N 40°41' W 074°05'0 0.0
2017-Nov-14 18:30N 40°41' W 074°05'0 0.2
2017-Nov-14 18:00N 40°40' W 074°05'1 1.2
2017-Nov-14 17:30N 40°40' W 074°04'1 2.4
2017-Nov-14 17:01N 40°39' W 074°03'1 2.8
2017-Nov-14 16:30N 40°40' W 074°01'1 1.0
2017-Nov-14 16:00N 40°40' W 074°00'0 0.3
2017-Nov-14 15:30N 40°40' W 074°00'0 0.1
2017-Nov-14 15:01N 40°40' W 074°00'0 0.0
2017-Nov-14 14:30N 40°40' W 074°00'0 0.1
2017-Nov-14 14:00N 40°40' W 074°00'0 0.3
2017-Nov-14 13:31N 40°40' W 074°00'0 0.0
2017-Nov-14 13:01N 40°40' W 074°00'0 0.0
2017-Nov-14 12:30N 40°40' W 074°00'0 0.7
2017-Nov-14 12:00N 40°40' W 074°01'2 4.5
2017-Nov-14 11:30N 40°40' W 074°04'1 1.9
2017-Nov-14 11:00N 40°40' W 074°05'0 0.0
2017-Nov-14 10:30N 40°40' W 074°05'0 0.0
2017-Nov-14 10:00N 40°40' W 074°05'0 0.0
2017-Nov-14 09:30N 40°40' W 074°05'0 0.0
2017-Nov-14 09:00N 40°40' W 074°05'0 0.0
2017-Nov-14 08:31N 40°40' W 074°05'0 0.0
2017-Nov-14 08:01N 40°40' W 074°05'0 0.0
2017-Nov-14 07:31N 40°40' W 074°05'0 0.0
2017-Nov-14 07:01N 40°40' W 074°05'0 0.0
2017-Nov-14 06:31N 40°40' W 074°05'0 0.0
2017-Nov-14 06:00N 40°40' W 074°05'0 0.0
2017-Nov-14 05:31N 40°40' W 074°05'0 0.0
2017-Nov-14 05:00N 40°40' W 074°05'0 0.0
2017-Nov-14 04:30N 40°40' W 074°05'0 0.0
2017-Nov-14 04:00N 40°40' W 074°05'0 0.0
2017-Nov-14 03:30N 40°40' W 074°05'0 0.2
2017-Nov-14 03:01N 40°41' W 074°05'0 0.0
2017-Nov-14 02:31N 40°41' W 074°05'0 0.0
2017-Nov-14 02:00N 40°41' W 074°05'0 0.0
2017-Nov-14 01:31N 40°41' W 074°05'0 0.0
2017-Nov-14 01:00N 40°41' W 074°05'0 0.0
2017-Nov-14 00:31N 40°41' W 074°05'0 0.0
2017-Nov-14 00:01N 40°41' W 074°05'0 0.4
2017-Nov-13 23:31N 40°41' W 074°04'0 0.1
2017-Nov-13 23:00N 40°41' W 074°04'0 0.3
2017-Nov-13 22:30N 40°40' W 074°04'0 0.3
2017-Nov-13 22:00N 40°41' W 074°04'4 0.2
2017-Nov-13 02:01N 40°37' W 074°03'0 0.0
2017-Nov-13 01:31N 40°37' W 074°03'0 0.0
2017-Nov-13 01:00N 40°37' W 074°03'0 0.0
2017-Nov-13 00:29N 40°37' W 074°03'0 0.2
2017-Nov-13 00:01N 40°37' W 074°03'0 0.0
2017-Nov-12 23:30N 40°37' W 074°03'0 0.5
2017-Nov-12 23:01N 40°37' W 074°03'0 0.4
2017-Nov-12 22:30N 40°37' W 074°03'1 1.5
2017-Nov-12 22:00N 40°38' W 074°03'3 5.1
2017-Nov-12 21:30N 40°40' W 074°04'0 0.2
2017-Nov-12 21:00N 40°41' W 074°05'0 0.0
2017-Nov-12 20:30N 40°41' W 074°05'0 0.0
2017-Nov-12 20:01N 40°41' W 074°05'0 0.0
2017-Nov-12 19:30N 40°41' W 074°05'0 0.0
2017-Nov-12 19:00N 40°41' W 074°05'0 0.0
2017-Nov-12 18:30N 40°41' W 074°05'0 0.0
2017-Nov-12 18:00N 40°41' W 074°05'0 0.0
2017-Nov-12 17:30N 40°41' W 074°05'2 4.3
2017-Nov-12 17:00N 40°39' W 074°06'0 0.3
2017-Nov-12 15:46N 40°39' W 074°07'0 0.0
2017-Nov-12 15:30N 40°39' W 074°07'0 0.0
2017-Nov-12 14:56N 40°39' W 074°07'0 0.0
2017-Nov-12 14:28N 40°39' W 074°07'0 0.0
2017-Nov-12 14:00N 40°39' W 074°07'0 0.2
2017-Nov-12 13:31N 40°39' W 074°07'2 4.6
2017-Nov-12 13:00N 40°40' W 074°04'0 0.3
2017-Nov-12 12:30N 40°41' W 074°05'0 0.0
2017-Nov-12 12:01N 40°41' W 074°05'0 0.0
2017-Nov-12 11:31N 40°41' W 074°05'0 0.0
2017-Nov-12 11:00N 40°41' W 074°05'0 0.0
2017-Nov-12 10:30N 40°41' W 074°05'0 0.0
2017-Nov-12 09:30N 40°41' W 074°05'0 0.0
2017-Nov-12 09:01N 40°41' W 074°05'0 0.0
2017-Nov-12 08:30N 40°41' W 074°05'0 0.0
2017-Nov-12 08:01N 40°41' W 074°05'0 0.0
2017-Nov-12 07:31N 40°41' W 074°05'0 0.0
2017-Nov-12 07:01N 40°41' W 074°05'0 0.0
2017-Nov-12 06:30N 40°41' W 074°05'0 0.0
2017-Nov-12 06:00N 40°41' W 074°05'0 0.0
2017-Nov-12 05:30N 40°41' W 074°05'0 0.0
2017-Nov-12 05:01N 40°41' W 074°05'0 0.0
2017-Nov-12 04:30N 40°41' W 074°05'0 0.0
2017-Nov-12 04:00N 40°41' W 074°05'0 0.0
2017-Nov-12 03:31N 40°41' W 074°05'0 0.0
2017-Nov-12 03:00N 40°41' W 074°05'0 0.0
2017-Nov-12 02:30N 40°41' W 074°05'0 0.0
2017-Nov-12 02:01N 40°41' W 074°05'0 0.0
2017-Nov-12 01:30N 40°41' W 074°05'0 0.0
2017-Nov-12 01:00N 40°41' W 074°05'0 0.0
2017-Nov-12 00:30N 40°41' W 074°05'0 0.0
2017-Nov-12 00:01N 40°41' W 074°05'0 0.0
2017-Nov-11 23:31N 40°41' W 074°05'0 0.0
2017-Nov-11 23:01N 40°41' W 074°05'0 0.0
2017-Nov-11 22:31N 40°41' W 074°05'0 0.0
2017-Nov-11 22:00N 40°41' W 074°05'0 0.3
2017-Nov-11 21:31N 40°40' W 074°04'0 0.1
2017-Nov-11 21:00N 40°40' W 074°04'0 0.4
2017-Nov-11 20:31N 40°41' W 074°05'0 0.0
2017-Nov-11 20:00N 40°41' W 074°05'0 0.0
2017-Nov-11 19:31N 40°41' W 074°05'0 0.0
2017-Nov-11 19:00N 40°41' W 074°05'0 0.0
2017-Nov-11 18:31N 40°41' W 074°05'0 0.0
2017-Nov-11 18:01N 40°41' W 074°05'0 0.0
2017-Nov-11 17:30N 40°41' W 074°05'0 0.0
2017-Nov-11 17:01N 40°41' W 074°05'0 0.0
2017-Nov-11 16:30N 40°41' W 074°05'0 0.0
2017-Nov-11 16:01N 40°41' W 074°05'0 0.0
2017-Nov-11 15:30N 40°41' W 074°05'0 0.0
2017-Nov-11 15:00N 40°41' W 074°05'0 0.0
2017-Nov-11 14:30N 40°41' W 074°05'0 0.0
2017-Nov-11 14:00N 40°41' W 074°05'0 0.0
2017-Nov-11 13:31N 40°41' W 074°05'0 0.0
2017-Nov-11 13:00N 40°41' W 074°05'0 0.0
2017-Nov-11 12:30N 40°41' W 074°05'0 0.0
2017-Nov-11 12:01N 40°41' W 074°05'0 0.0
2017-Nov-11 11:30N 40°41' W 074°05'0 0.0
2017-Nov-11 11:00N 40°41' W 074°05'0 0.0
2017-Nov-11 10:30N 40°41' W 074°05'0 0.0
2017-Nov-11 10:00N 40°41' W 074°05'0 0.0
2017-Nov-11 09:30N 40°41' W 074°05'0 0.0
2017-Nov-11 09:00N 40°41' W 074°05'0 0.0
2017-Nov-11 08:31N 40°41' W 074°05'0 0.0
2017-Nov-11 08:00N 40°41' W 074°05'0 0.0
2017-Nov-11 07:31N 40°41' W 074°05'0 0.0
2017-Nov-11 07:01N 40°41' W 074°05'0 0.0
2017-Nov-11 06:30N 40°41' W 074°05'0 0.0
2017-Nov-11 06:00N 40°41' W 074°05'0 0.0
2017-Nov-11 05:30N 40°41' W 074°05'0 0.0
2017-Nov-11 05:01N 40°41' W 074°05'0 0.0
2017-Nov-11 04:30N 40°41' W 074°05'0 0.0
2017-Nov-11 04:01N 40°41' W 074°05'0 0.0
2017-Nov-11 03:31N 40°41' W 074°05'0 0.0
2017-Nov-11 03:00N 40°41' W 074°05'0 0.0
2017-Nov-11 02:30N 40°41' W 074°05'0 0.0
2017-Nov-11 02:00N 40°41' W 074°05'0 0.0
2017-Nov-11 01:30N 40°41' W 074°05'0 0.0
2017-Nov-11 01:00N 40°41' W 074°05'0 0.0
2017-Nov-11 00:30N 40°41' W 074°05'0 0.0
2017-Nov-11 00:00N 40°41' W 074°05'0 0.0
2017-Nov-10 23:30N 40°41' W 074°05'0 0.0
2017-Nov-10 23:00N 40°41' W 074°05'0 0.0
2017-Nov-10 22:30N 40°41' W 074°05'0 0.0
2017-Nov-10 22:00N 40°41' W 074°05'0 0.0
2017-Nov-10 21:31N 40°41' W 074°05'0 0.0
2017-Nov-10 21:00N 40°41' W 074°05'0 0.0
2017-Nov-10 20:31N 40°41' W 074°05'0 0.0
2017-Nov-10 20:00N 40°41' W 074°05'0 0.0
2017-Nov-10 19:30N 40°41' W 074°05'0 0.0
2017-Nov-10 19:00N 40°41' W 074°05'0 0.0
2017-Nov-10 18:30N 40°41' W 074°05'0 0.0
2017-Nov-10 18:00N 40°41' W 074°05'0 0.0
2017-Nov-10 17:30N 40°41' W 074°05'0 0.0
2017-Nov-10 17:00N 40°41' W 074°05'0 0.0
2017-Nov-10 16:31N 40°41' W 074°05'0 0.0
2017-Nov-10 16:01N 40°41' W 074°05'0 0.0
2017-Nov-10 15:30N 40°41' W 074°05'0 0.0
2017-Nov-10 15:01N 40°41' W 074°05'0 0.0
2017-Nov-10 14:31N 40°41' W 074°05'0 0.0
2017-Nov-10 14:01N 40°41' W 074°05'0 0.0
2017-Nov-10 13:30N 40°41' W 074°05'0 0.0
2017-Nov-10 13:01N 40°41' W 074°05'0 0.0
2017-Nov-10 12:30N 40°41' W 074°05'0 0.0
2017-Nov-10 12:00N 40°41' W 074°05'0 0.0
2017-Nov-10 11:31N 40°41' W 074°05'0 0.0
2017-Nov-10 11:00N 40°41' W 074°05'0 0.0
2017-Nov-10 10:30N 40°41' W 074°05'0 0.0
2017-Nov-10 10:01N 40°41' W 074°05'0 0.0
2017-Nov-10 09:30N 40°41' W 074°05'0 0.0
2017-Nov-10 09:01N 40°41' W 074°05'0 0.0
2017-Nov-10 08:30N 40°41' W 074°05'0 0.0
2017-Nov-10 08:01N 40°41' W 074°05'0 0.0
2017-Nov-10 07:30N 40°41' W 074°05'0 0.0
2017-Nov-10 07:01N 40°41' W 074°05'0 0.0
2017-Nov-10 06:31N 40°41' W 074°05'0 0.0
2017-Nov-10 06:00N 40°41' W 074°05'0 0.0
2017-Nov-10 05:31N 40°41' W 074°05'0 0.0
2017-Nov-10 05:01N 40°41' W 074°05'0 0.0
2017-Nov-10 04:31N 40°41' W 074°05'0 0.0
2017-Nov-10 04:01N 40°41' W 074°05'0 0.0
2017-Nov-10 03:31N 40°41' W 074°05'0 0.0
2017-Nov-10 03:01N 40°41' W 074°05'0 0.0
2017-Nov-10 02:30N 40°41' W 074°05'0 0.0
2017-Nov-10 02:00N 40°41' W 074°05'0 0.0
2017-Nov-10 01:30N 40°41' W 074°05'0 0.0
2017-Nov-10 01:00N 40°41' W 074°05'0 0.0
2017-Nov-10 00:31N 40°41' W 074°05'  

Dump ship's entire track history